^^
Datos históricos de la estación: Murcia-Puente Tocinos
Diario Informe para Mayo 5, 2019 Unidades:  Ingés    Métrico   Ambas
Diario Semanal Mensual Anual
  Máxima: Mínima: Promedio:
Temperatura: 63.7 °F 37.9 °F 48.6 °F
Punto de rocio: 44.6 °F 30.2 °F 36.9 °F
Humedad: 89% 28.6% 68%
Velocidad viento: 6.4mph 1.4mph 4mph
Racha viento: 14mph - -
Viento- - SSO
Presión: 30.5 in 30.3 in -
Precipitación: 0 in    
 
 
Tabla de datos para Mayo 5, 2019
Hora Temperatura Punto de rocio Presión Viento Velocidad viento Racha viento Humedad Intensidad lluvia(por hora) Nubes
00:04 45.5 °F 41.5 °F 30.4 in SSE 4.3 mph 8.1 mph 85.7% 0 in
00:09 45.1 °F 41.4 °F 30.4 in SSE 4.8 mph 8.1 mph 86% 0 in
00:14 45 °F 41.2 °F 30.4 in SSE 5.2 mph 8.1 mph 86.6% 0 in
00:19 44.6 °F 41 °F 30.4 in SSE 5.3 mph 7.4 mph 87% 0 in
00:24 44.2 °F 40.8 °F 30.4 in SSE 5.4 mph 7.4 mph 87.2% 0 in
00:29 44.1 °F 40.8 °F 30.4 in Sur 5 mph 7 mph 88% 0 in
00:34 44.1 °F 40.6 °F 30.4 in Sur 4.7 mph 7 mph 88% 0 in
00:39 44.1 °F 40.6 °F 30.4 in Sur 4.7 mph 7.4 mph 88% 0 in
00:44 44.1 °F 40.5 °F 30.4 in Sur 4.7 mph 8.1 mph 87.5% 0 in
00:49 44.1 °F 40.3 °F 30.4 in SSO 4.7 mph 8.1 mph 86.6% 0 in
00:54 43.9 °F 39.9 °F 30.4 in SSO 4.7 mph 8 mph 85.4% 0 in
00:59 43.9 °F 39.6 °F 30.4 in SO 4.7 mph 7 mph 84.3% 0 in
01:04 44.1 °F 39.2 °F 30.4 in OSO 4.7 mph 7 mph 83% 0 in
01:09 44.1 °F 39 °F 30.4 in SO 3.4 mph 6 mph 82.6% 0 in
01:14 44.1 °F 38.8 °F 30.4 in SO 2.4 mph 6 mph 82% 0 in
01:19 44.2 °F 38.8 °F 30.4 in SSO 3 mph 6 mph 81.6% 0 in
01:24 44.2 °F 39 °F 30.4 in SSO 3.6 mph 6 mph 82% 0 in
01:29 44.1 °F 39 °F 30.4 in Sur 3.6 mph 6.2 mph 82% 0 in
01:34 44.1 °F 38.8 °F 30.4 in Sur 3.6 mph 6 mph 82% 0 in
01:39 43.9 °F 38.7 °F 30.4 in Sur 3.6 mph 5.9 mph 82% 0 in
01:44 43.7 °F 38.5 °F 30.4 in Sur 3.6 mph 6 mph 81.7% 0 in
01:49 43.5 °F 38.3 °F 30.4 in Sur 3.8 mph 6.9 mph 81.4% 0 in
01:54 43.3 °F 37.9 °F 30.4 in Sur 4 mph 7 mph 81% 0 in
01:59 43.3 °F 37.9 °F 30.4 in Sur 4.2 mph 6.9 mph 81% 0 in
02:04 43.2 °F 37.8 °F 30.4 in Sur 4.3 mph 7.4 mph 81% 0 in
02:09 43.2 °F 37.8 °F 30.4 in Sur 4.5 mph 7 mph 81% 0 in
02:14 43.2 °F 37.8 °F 30.4 in Sur 4.7 mph 7.4 mph 81% 0 in
02:19 43 °F 37.6 °F 30.4 in Sur 4.7 mph 8.1 mph 81% 0 in
02:24 42.6 °F 37.6 °F 30.4 in Sur 4.7 mph 8.5 mph 81.9% 0 in
02:29 42.6 °F 37.4 °F 30.4 in SSO 5.3 mph 9.2 mph 82% 0 in
02:34 42.4 °F 37.2 °F 30.4 in SSO 5.9 mph 9 mph 82% 0 in
02:39 42.4 °F 37.2 °F 30.4 in SSO 5.5 mph 8.5 mph 82% 0 in
02:44 42.4 °F 37.4 °F 30.4 in SSO 5.2 mph 9 mph 81.8% 0 in
02:49 42.6 °F 37.2 °F 30.4 in SO 4.9 mph 7 mph 81% 0 in
02:54 42.8 °F 37.4 °F 30.4 in OSO 4.7 mph 6.9 mph 81% 0 in
02:59 43 °F 37.6 °F 30.4 in SO 4.5 mph 7 mph 81% 0 in
03:04 43 °F 37.4 °F 30.4 in SO 4.3 mph 7 mph 80.6% 0 in
03:09 43 °F 37.2 °F 30.4 in SO 4.3 mph 7 mph 80% 0 in
03:14 43 °F 37 °F 30.4 in OSO 4.3 mph 7 mph 79.3% 0 in
03:19 43 °F 36.9 °F 30.5 in Oeste 4.2 mph 6 mph 79% 0 in
03:24 42.6 °F 36.7 °F 30.5 in SO 4 mph 6 mph 79% 0 in
03:29 42.6 °F 36.7 °F 30.5 in Sur 3.4 mph 5 mph 79.6% 0 in
03:34 42.6 °F 36.9 °F 30.5 in SSE 2.9 mph 5.2 mph 80.2% 0 in
03:39 42.3 °F 37 °F 30.5 in SSE 2.6 mph 5.2 mph 81.5% 0 in
03:44 41.7 °F 36.9 °F 30.5 in SSE 2.4 mph 5.8 mph 83% 0 in
03:49 41.2 °F 36.9 °F 30.5 in Sur 3 mph 6 mph 84.4% 0 in
03:54 40.8 °F 36.9 °F 30.5 in SSE 3.6 mph 6 mph 85.5% 0 in
03:59 40.6 °F 36.7 °F 30.5 in SE 3.6 mph 6.2 mph 86% 0 in
04:04 40.5 °F 36.9 °F 30.5 in SE 3.6 mph 6 mph 86.9% 0 in
04:09 40.3 °F 36.7 °F 30.5 in SSE 3.6 mph 6.2 mph 87% 0 in
04:14 39.9 °F 36.5 °F 30.5 in SSE 3.6 mph 6.4 mph 87.1% 0 in
04:19 39.7 °F 36.5 °F 30.5 in Sur 4.2 mph 7 mph 88% 0 in
04:24 39.7 °F 36.5 °F 30.5 in Sur 4.7 mph 7.4 mph 88% 0 in
04:29 39.7 °F 36.7 °F 30.5 in Sur 4.5 mph 7 mph 88.2% 0 in
04:34 39.9 °F 36.9 °F 30.5 in Sur 4.3 mph 7.4 mph 89% 0 in
04:39 39.9 °F 36.9 °F 30.5 in Sur 4.8 mph 8.1 mph 89% 0 in
04:44 39.9 °F 37 °F 30.5 in Sur 5.2 mph 8.1 mph 89% 0 in
04:49 40.1 °F 36.7 °F 30.5 in SSE 5.2 mph 7 mph 88% 0 in
04:54 40.1 °F 36.9 °F 30.4 in SSE 5.2 mph 7 mph 88% 0 in
04:59 40.1 °F 36.9 °F 30.4 in Sur 4.7 mph 6 mph 87.9% 0 in
05:04 40.1 °F 36.5 °F 30.4 in Sur 4.3 mph 6.2 mph 87% 0 in
05:09 40.1 °F 36.5 °F 30.4 in Sur 4.3 mph 7.4 mph 87% 0 in
05:14 40.1 °F 36.5 °F 30.4 in SSO 4.3 mph 7 mph 87% 0 in
05:19 40.1 °F 36.5 °F 30.5 in SSO 4.5 mph 8.1 mph 87% 0 in
05:24 40.3 °F 36.3 °F 30.5 in SSO 4.7 mph 8.1 mph 86.2% 0 in
05:29 40.3 °F 36.1 °F 30.5 in SSO 5 mph 8.1 mph 85.2% 0 in
05:34 40.3 °F 36 °F 30.5 in SSO 5.2 mph 8.5 mph 84.6% 0 in
05:39 40.1 °F 35.6 °F 30.4 in Sur 5.6 mph 9 mph 84% 0 in
05:44 39.9 °F 35.4 °F 30.4 in Sur 5.9 mph 8 mph 83.8% 0 in
05:49 39.7 °F 35.1 °F 30.4 in SSO 5 mph 7 mph 83.2% 0 in
05:54 39.7 °F 35.2 °F 30.4 in SSO 4.3 mph 6 mph 84% 0 in
05:59 39.7 °F 35.2 °F 30.4 in SSO 3.2 mph 5 mph 83.8% 0 in
06:04 39.7 °F 35.1 °F 30.5 in SO 2.4 mph 5 mph 83% 0 in
06:09 39.9 °F 35.1 °F 30.5 in SO 2.7 mph 5.8 mph 82.6% 0 in
06:14 39.9 °F 34.9 °F 30.5 in SO 2.9 mph 6 mph 82% 0 in
06:19 39.9 °F 34.9 °F 30.5 in SO 3.3 mph 5 mph 81.8% 0 in
06:24 40.1 °F 34.7 °F 30.5 in SSO 3.6 mph 5.9 mph 81% 0 in
06:29 40.1 °F 34.7 °F 30.5 in SSO 3.2 mph 6 mph 81% 0 in
06:34 40.1 °F 34.7 °F 30.5 in SSO 2.9 mph 5 mph 81% 0 in
06:39 40.1 °F 34.7 °F 30.5 in SSO 2.6 mph 5 mph 81% 0 in
06:44 39.9 °F 34.7 °F 30.5 in SSO 2.4 mph 6.2 mph 81.6% 0 in
06:49 39.7 °F 34.7 °F 30.5 in Sur 2.7 mph 6 mph 82% 0 in
06:54 39.6 °F 34.7 °F 30.5 in Sur 2.9 mph 5.8 mph 82.6% 0 in
06:59 39.6 °F 34.9 °F 30.5 in Sur 3 mph 6 mph 83.4% 0 in
07:04 39.4 °F 34.9 °F 30.5 in Sur 3.1 mph 5 mph 84% 0 in
07:09 39.4 °F 35.1 °F 30.5 in Sur 2.5 mph 4.3 mph 84.7% 0 in
07:14 39.4 °F 35.4 °F 30.5 in SSO 2 mph 5 mph 85.7% 0 in
07:19 39.4 °F 35.4 °F 30.5 in SSO 2.5 mph 5 mph 86% 0 in
07:24 39.4 °F 35.4 °F 30.5 in Sur 2.9 mph 6.2 mph 86% 0 in
07:29 39 °F 35.6 °F 30.5 in SSE 3.5 mph 8.5 mph 86.9% 0 in
07:34 38.8 °F 35.2 °F 30.5 in SSE 4 mph 9 mph 87.2% 0 in
07:39 38.5 °F 35.2 °F 30.5 in SSE 4.7 mph 7.4 mph 88% 0 in
07:44 38.3 °F 35.2 °F 30.5 in Sur 5.2 mph 7 mph 88.8% 0 in
07:49 38.1 °F 35.2 °F 30.5 in Sur 4.5 mph 6 mph 89% 0 in
07:54 38.1 °F 35.2 °F 30.5 in SSO 4 mph 6.4 mph 89% 0 in
07:59 38.1 °F 35.2 °F 30.5 in SSO 4.2 mph 7 mph 89% 0 in
08:04 38.1 °F 35.1 °F 30.5 in SSO 4.3 mph 7 mph 88% 0 in
08:09 38.5 °F 34.9 °F 30.5 in SSO 4.3 mph 7.4 mph 87.1% 0 in
08:14 38.5 °F 34.5 °F 30.5 in SSO 4.3 mph 7.4 mph 85.6% 0 in
08:19 38.7 °F 34.3 °F 30.5 in SSO 4.5 mph 7 mph 84.3% 0 in
08:24 38.7 °F 34.2 °F 30.5 in SSO 4.7 mph 7 mph 83.6% 0 in
08:29 38.7 °F 33.8 °F 30.5 in Sur 4.3 mph 6 mph 83% 0 in
08:34 38.5 °F 33.8 °F 30.5 in SSE 4 mph 6 mph 83% 0 in
08:39 38.3 °F 33.8 °F 30.5 in SSE 3.8 mph 6 mph 83.8% 0 in
08:44 38.1 °F 33.6 °F 30.5 in Sur 3.6 mph 6 mph 84% 0 in
08:49 37.9 °F 33.6 °F 30.5 in Sur 3.2 mph 5 mph 84.4% 0 in
08:54 37.9 °F 34 °F 30.5 in Sur 2.9 mph 5 mph 85% 0 in
08:59 38.3 °F 34.2 °F 30.5 in Sur 1.9 mph 2 mph 84.5% 0 in
09:04 38.7 °F 34 °F 30.5 in Sur 1.4 mph 4.7 mph 83.5% 0 in
09:09 38.7 °F 34 °F 30.5 in Sur 1.7 mph 5.4 mph 83% 0 in
09:14 38.7 °F 34 °F 30.5 in Sur 2 mph 6.2 mph 83% 0 in
09:19 38.7 °F 34 °F 30.5 in Sur 3.1 mph 6.2 mph 83% 0 in
09:24 38.7 °F 34 °F 30.5 in SSO 4 mph 6 mph 83% 0 in
09:29 38.8 °F 34 °F 30.5 in SSO 3.8 mph 6 mph 83% 0 in
09:34 38.8 °F 33.8 °F 30.5 in SSE 3.6 mph 6 mph 82.2% 0 in
09:39 39 °F 34 °F 30.5 in Sur 3.9 mph 6 mph 82% 0 in
09:44 39.2 °F 34.3 °F 30.5 in Sur 4 mph 6.2 mph 82.4% 0 in
09:49 39.6 °F 34.5 °F 30.5 in Sur 4 mph 6.9 mph 82.4% 0 in
09:54 39.7 °F 34.7 °F 30.5 in Sur 4 mph 7 mph 81.5% 0 in
09:59 40.5 °F 34.7 °F 30.5 in Sur 4 mph 6 mph 80% 0 in
10:04 41 °F 34.7 °F 30.5 in SSO 4 mph 6.2 mph 78.2% 0 in
10:09 41.5 °F 34.7 °F 30.5 in SSO 4 mph 6.2 mph 76.6% 0 in
10:14 41.7 °F 34.5 °F 30.5 in SSO 4 mph 7.4 mph 75.2% 0 in
10:19 42.1 °F 34.7 °F 30.5 in SSO 4.2 mph 8.1 mph 74.5% 0 in
10:24 42.3 °F 34.2 °F 30.5 in SO 4.3 mph 10 mph 73.2% 0 in
10:29 42.3 °F 34.2 °F 30.5 in SO 4.9 mph 10 mph 73% 0 in
10:34 42.4 °F 34.3 °F 30.5 in SO 5.4 mph 9 mph 73% 0 in
10:39 42.8 °F 34.5 °F 30.5 in SO 4.6 mph 8.1 mph 72.4% 0 in
10:44 43 °F 34.5 °F 30.5 in SO 4 mph 8 mph 71.7% 0 in
10:49 43.2 °F 34.7 °F 30.5 in SO 4.2 mph 7 mph 71.4% 0 in
10:54 43.5 °F 34.5 °F 30.5 in Oeste 4.3 mph 6 mph 70.5% 0 in
10:59 44.1 °F 34.3 °F 30.5 in OSO 3.5 mph 6.4 mph 68.2% 0 in
11:04 44.4 °F 33.8 °F 30.5 in OSO 2.9 mph 7 mph 66% 0 in
11:09 44.8 °F 34 °F 30.5 in OSO 3 mph 7 mph 65.7% 0 in
11:14 45.3 °F 34.2 °F 30.5 in SSO 3.1 mph 5 mph 64.8% 0 in
11:19 45.9 °F 33.8 °F 30.5 in Oeste 2.7 mph 5.9 mph 62.6% 0 in
11:24 46.2 °F 33.1 °F 30.5 in Oeste 2.4 mph 6 mph 60% 0 in
11:29 46.4 °F 32.9 °F 30.5 in OSO 3 mph 6 mph 59.2% 0 in
11:34 46.9 °F 33.6 °F 30.5 in OSO 3.6 mph 5 mph 59.7% 0 in
11:39 47.5 °F 34 °F 30.5 in OSO 2.6 mph 5 mph 59% 0 in
11:44 48 °F 33.6 °F 30.5 in OSO 1.8 mph 2.9 mph 57.2% 0 in
11:49 48.6 °F 33.6 °F 30.5 in OSO 1.6 mph 3.5 mph 56.2% 0 in
11:54 48.7 °F 33.8 °F 30.5 in OSO 1.4 mph 4.3 mph 55.9% 0 in
11:59 49.5 °F 33.4 °F 30.5 in Sur 1.4 mph 5 mph 53.9% 0 in
12:04 49.8 °F 33.6 °F 30.5 in SSO 1.4 mph 5 mph 53.3% 0 in
12:09 50.4 °F 33.4 °F 30.5 in Sur 1.7 mph 5 mph 52.1% 0 in
12:14 50.9 °F 33.1 °F 30.5 in SO 2 mph 6.2 mph 50.2% 0 in
12:19 51.1 °F 33.1 °F 30.5 in SO 2.6 mph 6 mph 50% 0 in
12:24 51.3 °F 33.4 °F 30.5 in SSO 3.1 mph 6 mph 50.5% 0 in
12:29 51.4 °F 33.4 °F 30.5 in SO 3 mph 6.2 mph 49.8% 0 in
12:34 52 °F 32.9 °F 30.5 in Sur 2.9 mph 8.1 mph 48.3% 0 in
12:39 52.2 °F 33.4 °F 30.5 in Sur 3.9 mph 8.1 mph 48.8% 0 in
12:44 52.2 °F 33.3 °F 30.5 in SSO 4.7 mph 8 mph 48.4% 0 in
12:49 52.5 °F 33.6 °F 30.5 in SSO 4.5 mph 8.1 mph 48.2% 0 in
12:54 53.1 °F 33.6 °F 30.4 in SSO 4.3 mph 8.1 mph 47.6% 0 in
12:59 53.4 °F 34.2 °F 30.4 in SSO 4.5 mph 8 mph 47.9% 0 in
13:04 53.8 °F 34.2 °F 30.4 in SSO 4.7 mph 8.5 mph 47% 0 in
13:09 54 °F 34.2 °F 30.4 in SSO 5.1 mph 10.4 mph 47% 0 in
13:14 54.1 °F 34.3 °F 30.4 in SSO 5.4 mph 10 mph 47% 0 in
13:19 54.7 °F 34.5 °F 30.4 in SO 5.3 mph 9 mph 46.3% 0 in
13:24 55 °F 34.7 °F 30.4 in SO 5.2 mph 8 mph 46% 0 in
13:29 55.6 °F 34.7 °F 30.4 in SO 4.3 mph 6 mph 45.1% 0 in
13:34 55.9 °F 34.3 °F 30.4 in SO 3.6 mph 8.1 mph 44% 0 in
13:39 56.1 °F 33.8 °F 30.4 in OSO 4 mph 8.1 mph 43% 0 in
13:44 56.3 °F 34.3 °F 30.4 in OSO 4.3 mph 7 mph 43.6% 0 in
13:49 56.8 °F 34 °F 30.4 in SO 2.9 mph 5 mph 42.1% 0 in
13:54 57.4 °F 33.8 °F 30.4 in OSO 1.8 mph 5.2 mph 41% 0 in
13:59 57.6 °F 33.4 °F 30.4 in Este 1.9 mph 5 mph 40% 0 in
14:04 57.7 °F 33.6 °F 30.4 in SSO 2 mph 5.9 mph 40% 0 in
14:09 57.9 °F 33.1 °F 30.4 in Sur 2.9 mph 6.2 mph 39.1% 0 in
14:14 58.1 °F 33.3 °F 30.4 in Sur 3.6 mph 6.9 mph 39% 0 in
14:19 58.3 °F 33.3 °F 30.4 in SSO 3.6 mph 7 mph 38.9% 0 in
14:24 58.5 °F 33.1 °F 30.4 in SSO 3.6 mph 7 mph 38.2% 0 in
14:29 58.6 °F 32.4 °F 30.4 in SSE 3.6 mph 7.4 mph 37% 0 in
14:34 58.6 °F 32.2 °F 30.4 in SSO 3.6 mph 7 mph 36.6% 0 in
14:39 58.6 °F 31.6 °F 30.4 in SE 3.9 mph 7 mph 35.9% 0 in
14:44 58.8 °F 31.5 °F 30.4 in Sur 4 mph 6.9 mph 35.2% 0 in
14:49 59.2 °F 31.5 °F 30.4 in Sur 4.2 mph 7 mph 35% 0 in
14:54 59.4 °F 31.6 °F 30.4 in Sur 4.3 mph 7 mph 35% 0 in
14:59 59.5 °F 31.3 °F 30.4 in Sur 4.1 mph 7 mph 34% 0 in
15:04 59.9 °F 31.3 °F 30.4 in SSO 4 mph 7 mph 33.7% 0 in
15:09 60.1 °F 31.5 °F 30.4 in Sur 4 mph 7 mph 33.7% 0 in
15:14 60.3 °F 31.3 °F 30.4 in Sur 4 mph 7 mph 33.3% 0 in
15:19 60.4 °F 31.3 °F 30.4 in Sur 4 mph 7 mph 33% 0 in
15:24 60.8 °F 31.1 °F 30.4 in SO 4 mph 6 mph 32.4% 0 in
15:29 61.2 °F 31.3 °F 30.4 in Sur 3.5 mph 5 mph 32.4% 0 in
15:34 61.2 °F 31.1 °F 30.4 in SSE 3.1 mph 6.9 mph 31.9% 0 in
15:39 61.3 °F 31.3 °F 30.4 in Sur 3.4 mph 7 mph 31.9% 0 in
15:44 61.5 °F 30.9 °F 30.4 in SSO 3.6 mph 6 mph 31.3% 0 in
15:49 61.9 °F 31.1 °F 30.4 in SSE 3.6 mph 6.2 mph 31.3% 0 in
15:54 61.9 °F 30.9 °F 30.4 in Sur 3.6 mph 6.2 mph 31.1% 0 in
15:59 62.1 °F 30.9 °F 30.4 in Sur 3.9 mph 6.9 mph 31% 0 in
16:04 62.1 °F 30.7 °F 30.4 in Sur 4 mph 7 mph 30.8% 0 in
16:09 62.2 °F 30.7 °F 30.4 in SSO 4.2 mph 6.9 mph 30.5% 0 in
16:14 62.2 °F 30.4 °F 30.4 in SO 4.3 mph 7 mph 30% 0 in
16:19 62.2 °F 30.4 °F 30.4 in SO 3.9 mph 6 mph 30% 0 in
16:24 62.6 °F 30.2 °F 30.4 in SO 3.6 mph 6.2 mph 29.3% 0 in
16:29 63 °F 30.2 °F 30.4 in SO 3.3 mph 6 mph 29.2% 0 in
16:34 63.1 °F 30.2 °F 30.4 in Sur 3.1 mph 6.9 mph 29% 0 in
16:39 63.1 °F 30.4 °F 30.4 in Sur 3 mph 7 mph 29% 0 in
16:44 63.1 °F 30.4 °F 30.4 in SO 2.9 mph 5 mph 29% 0 in
16:49 63.3 °F 30.4 °F 30.4 in SO 2.6 mph 4 mph 28.8% 0 in
16:54 63.5 °F 30.4 °F 30.4 in SO 2.4 mph 4.7 mph 28.6% 0 in
16:59 63.7 °F 30.4 °F 30.4 in SO 2.4 mph 5 mph 28.6% 0 in
17:04 63.3 °F 30.6 °F 30.4 in SO 2.4 mph 5 mph 29% 0 in
17:09 63.3 °F 30.6 °F 30.4 in SO 2.7 mph 5.2 mph 29% 0 in
17:14 63.3 °F 30.6 °F 30.4 in SO 2.9 mph 5.8 mph 29.1% 0 in
17:19 63.1 °F 30.9 °F 30.4 in SO 3 mph 6 mph 29.8% 0 in
17:24 63 °F 30.4 °F 30.3 in SO 3.1 mph 6 mph 29.3% 0 in
17:29 63 °F 30.4 °F 30.3 in SO 2.5 mph 4 mph 29.1% 0 in
17:34 63.1 °F 30.9 °F 30.3 in SO 2 mph 3.6 mph 29.7% 0 in
17:39 63 °F 30.9 °F 30.3 in SO 2 mph 4.3 mph 30% 0 in
17:44 62.6 °F 31.3 °F 30.3 in Sur 2 mph 5.2 mph 30.6% 0 in
17:49 62.1 °F 32.7 °F 30.3 in SSE 2.6 mph 5 mph 33.4% 0 in
17:54 61.2 °F 33.6 °F 30.3 in SSE 3.1 mph 5 mph 35.4% 0 in
17:59 60.4 °F 34.2 °F 30.3 in SSE 3.1 mph 5.8 mph 37% 0 in
18:04 59.9 °F 34.5 °F 30.3 in Sur 3.1 mph 6 mph 38.5% 0 in
18:09 59.4 °F 34.5 °F 30.3 in Sur 3.4 mph 5.2 mph 39% 0 in
18:14 59 °F 35.4 °F 30.3 in SSO 3.6 mph 7.6 mph 41.2% 0 in
18:19 58.8 °F 37.4 °F 30.3 in SO 4 mph 8.1 mph 44.8% 0 in
18:24 58.6 °F 39.2 °F 30.3 in SO 4.3 mph 8 mph 48.5% 0 in
18:29 58.5 °F 40.3 °F 30.3 in SO 4.3 mph 7 mph 51% 0 in
18:34 57.9 °F 41.7 °F 30.3 in SO 4.3 mph 6.2 mph 54.9% 0 in
18:39 57.6 °F 42.3 °F 30.3 in SO 4.3 mph 6 mph 56.6% 0 in
18:44 57.2 °F 39.9 °F 30.3 in SO 4.3 mph 6 mph 52.4% 0 in
18:49 56.7 °F 39.9 °F 30.4 in SO 3.2 mph 5 mph 53.5% 0 in
18:54 56.1 °F 41.5 °F 30.4 in SO 2.4 mph 6.4 mph 57.9% 0 in
18:59 55.9 °F 42.1 °F 30.4 in Sur 3.4 mph 9.2 mph 59.7% 0 in
19:04 55.8 °F 42.6 °F 30.4 in Sur 4 mph 9 mph 61.3% 0 in
19:09 55.6 °F 43.2 °F 30.4 in SSO 4.7 mph 9 mph 63.3% 0 in
19:14 55.2 °F 43.7 °F 30.4 in SSO 5.2 mph 8 mph 65.1% 0 in
19:19 54.9 °F 44.1 °F 30.4 in SSO 4.5 mph 8.5 mph 66.9% 0 in
19:24 54.5 °F 44.4 °F 30.4 in SSO 4 mph 9 mph 68.4% 0 in
19:29 54.1 °F 44.4 °F 30.4 in SSO 4.2 mph 8.1 mph 69.3% 0 in
19:34 54 °F 44.4 °F 30.4 in SSO 4.3 mph 8 mph 70.1% 0 in
19:39 53.6 °F 44.4 °F 30.4 in SO 3.5 mph 6.9 mph 71% 0 in
19:44 53.2 °F 44.6 °F 30.4 in SO 2.9 mph 9.7 mph 72% 0 in
19:49 53.1 °F 44.6 °F 30.4 in SO 4.2 mph 10 mph 73% 0 in
19:54 52.9 °F 44.4 °F 30.4 in SSO 5.2 mph 10 mph 73% 0 in
19:59 52.5 °F 44.4 °F 30.4 in SSO 5.3 mph 8.5 mph 74% 0 in
20:04 52.3 °F 44.4 °F 30.4 in SSO 5.4 mph 10.4 mph 74.5% 0 in
20:09 52.2 °F 44.4 °F 30.4 in SSO 5.7 mph 12.7 mph 75% 0 in
20:14 51.8 °F 44.4 °F 30.4 in SSO 5.9 mph 13 mph 75.8% 0 in
20:19 51.6 °F 44.2 °F 30.4 in SSO 5.9 mph 10 mph 76.1% 0 in
20:24 51.4 °F 44.4 °F 30.4 in SSO 5.9 mph 9.2 mph 77% 0 in
20:29 51.3 °F 44.4 °F 30.4 in Sur 5.6 mph 9 mph 77% 0 in
20:34 51.3 °F 44.2 °F 30.4 in Sur 5.4 mph 9 mph 77.4% 0 in
20:39 50.9 °F 44.4 °F 30.4 in Sur 5.4 mph 9.2 mph 78% 0 in
20:44 50.7 °F 44.2 °F 30.4 in SSO 5.4 mph 9 mph 78.5% 0 in
20:49 50.7 °F 44.4 °F 30.4 in SSO 5.3 mph 9 mph 79% 0 in
20:54 50.7 °F 44.2 °F 30.4 in SO 5.2 mph 8.1 mph 78.5% 0 in
20:59 50.7 °F 44.2 °F 30.4 in SO 4.8 mph 8 mph 78% 0 in
21:04 51.3 °F 44.2 °F 30.4 in SO 4.7 mph 8.5 mph 77% 0 in
21:09 51.3 °F 44.1 °F 30.4 in SO 5 mph 9.2 mph 76% 0 in
21:14 51.4 °F 43.9 °F 30.4 in SSO 5.2 mph 9.2 mph 75.4% 0 in
21:19 51.4 °F 43.9 °F 30.4 in SSO 5.2 mph 10.4 mph 75% 0 in
21:24 51.4 °F 43.9 °F 30.4 in SSO 5.2 mph 13.8 mph 75% 0 in
21:29 51.6 °F 44.1 °F 30.4 in SSO 5.6 mph 14 mph 75% 0 in
21:34 51.4 °F 43.9 °F 30.4 in SSO 5.9 mph 11.5 mph 75% 0 in
21:39 51.3 °F 43.9 °F 30.4 in SSO 5.9 mph 12 mph 75.3% 0 in
21:44 51.1 °F 43.9 °F 30.4 in Sur 5.9 mph 10.7 mph 76.3% 0 in
21:49 50.7 °F 43.9 °F 30.4 in SSO 6.1 mph 11 mph 77.1% 0 in
21:54 50.5 °F 43.9 °F 30.4 in SSO 6.2 mph 9.7 mph 78% 0 in
21:59 50.4 °F 43.9 °F 30.4 in Sur 6 mph 10 mph 78.3% 0 in
22:04 50.2 °F 43.9 °F 30.4 in SSO 5.9 mph 9 mph 79% 0 in
22:09 50 °F 43.9 °F 30.4 in SO 5.5 mph 11.2 mph 79.5% 0 in
22:14 50.2 °F 44.1 °F 30.4 in SO 5.2 mph 12 mph 79.6% 0 in
22:19 50.2 °F 43.9 °F 30.4 in SSO 5.2 mph 10 mph 79% 0 in
22:24 50.2 °F 43.9 °F 30.4 in SSE 5.2 mph 9 mph 79% 0 in
22:29 50 °F 43.7 °F 30.4 in Sur 4.7 mph 6.9 mph 79% 0 in
22:34 49.6 °F 43.5 °F 30.4 in SSE 4.3 mph 8.1 mph 79.4% 0 in
22:39 49.5 °F 43.5 °F 30.4 in Sur 5.2 mph 9.7 mph 80% 0 in
22:44 49.1 °F 43.2 °F 30.4 in Sur 5.9 mph 10.2 mph 80.2% 0 in
22:49 48.7 °F 43.2 °F 30.4 in SSO 6.1 mph 11.5 mph 81% 0 in
22:54 48.7 °F 43.2 °F 30.4 in SSO 6.2 mph 12 mph 81% 0 in
22:59 48.9 °F 43.3 °F 30.4 in SSO 6.3 mph 11.5 mph 81% 0 in
23:04 49.3 °F 43.5 °F 30.4 in Sur 6.4 mph 12 mph 80.3% 0 in
23:09 49.3 °F 43.3 °F 30.4 in Sur 5.2 mph 7.4 mph 80% 0 in
23:14 49.3 °F 43.3 °F 30.4 in SSE 4.3 mph 7 mph 80% 0 in
23:19 48.9 °F 43.2 °F 30.4 in SSO 3.9 mph 6.9 mph 80.2% 0 in
23:24 48.7 °F 43.2 °F 30.4 in SSO 3.6 mph 8.5 mph 81% 0 in
23:29 48.6 °F 43 °F 30.4 in SSO 4.5 mph 9 mph 81% 0 in
23:34 48.6 °F 43 °F 30.4 in SSO 5.2 mph 9 mph 81% 0 in
23:39 48.4 °F 42.8 °F 30.4 in SSO 5.3 mph 8.1 mph 81% 0 in
23:44 48.2 °F 42.6 °F 30.4 in Sur 5.4 mph 8 mph 81% 0 in
23:49 48 °F 42.4 °F 30.4 in SSE 4.8 mph 7.4 mph 81% 0 in
23:54 47.7 °F 42.4 °F 30.4 in Sur 4.3 mph 9.7 mph 81.8% 0 in
23:59 47.3 °F 42.1 °F 30.4 in SSO 5.3 mph 11.8 mph 82% 0 in
Murcia-Puente Tocinos, Espa?a
Compliments of Weather Underground - 3.25 mb

La estación de MeteoMurcia.com, publica sus datos en los siguientes proyectos:

Weather Underground PWS IMURCIAP2 Meteoclimatic www.awekas.at

W3Counter
Web Analytics